createdAt,value
2023-02-08T00:01:54.087Z,4.97
2023-02-08T00:06:59.285Z,4.77
2023-02-08T00:12:02.774Z,5.10
2023-02-08T00:17:06.226Z,7.57
2023-02-08T00:22:11.148Z,5.10
2023-02-08T00:27:14.636Z,5.23
2023-02-08T00:32:18.106Z,4.87
2023-02-08T00:37:23.098Z,4.27
2023-02-08T00:42:27.021Z,3.50
2023-02-08T00:47:30.699Z,3.70
2023-02-08T00:52:35.791Z,4.03
2023-02-08T00:57:39.328Z,4.23
2023-02-08T01:02:42.793Z,4.30
2023-02-08T01:07:47.722Z,6.10
2023-02-08T01:12:51.196Z,4.10
2023-02-08T01:17:56.054Z,5.50
2023-02-08T01:23:00.966Z,5.27
2023-02-08T01:28:04.568Z,4.40
2023-02-08T01:33:08.220Z,4.83
2023-02-08T01:38:13.135Z,5.03
2023-02-08T01:43:23.481Z,4.80
2023-02-08T01:48:30.760Z,4.53
2023-02-08T01:53:37.166Z,4.30
2023-02-08T01:58:46.367Z,5.27
2023-02-08T02:03:49.926Z,4.63
2023-02-08T02:09:03.574Z,4.67
2023-02-08T02:14:08.054Z,5.00
2023-02-08T02:19:18.412Z,5.83
2023-02-08T02:25:03.923Z,7.03
2023-02-08T02:30:29.205Z,5.97
2023-02-08T02:35:43.815Z,4.20
2023-02-08T02:40:54.976Z,3.90
2023-02-08T02:46:07.123Z,4.47
2023-02-08T02:51:17.974Z,3.60
2023-02-08T02:56:25.655Z,4.90
2023-02-08T03:01:30.339Z,3.27
2023-02-08T03:06:45.799Z,3.63
2023-02-08T03:11:58.352Z,3.97
2023-02-08T03:17:20.062Z,3.23
2023-02-08T03:22:33.511Z,3.93
2023-02-08T03:27:42.852Z,3.50
2023-02-08T03:32:51.920Z,2.53
2023-02-08T03:38:01.956Z,3.50
2023-02-08T03:43:11.656Z,4.03
2023-02-08T03:48:17.465Z,3.17
2023-02-08T03:53:24.945Z,3.87
2023-02-08T03:58:33.862Z,5.10
2023-02-08T04:03:38.051Z,6.40
2023-02-08T04:08:42.956Z,4.33
2023-02-08T04:13:46.380Z,5.03
2023-02-08T04:18:49.875Z,6.30
2023-02-08T04:23:54.825Z,5.73
2023-02-08T04:28:58.302Z,6.20
2023-02-08T04:34:02.914Z,6.10
2023-02-08T04:39:07.853Z,5.80
2023-02-08T04:44:11.251Z,5.20
2023-02-08T04:49:14.692Z,6.30
2023-02-08T04:54:19.645Z,5.10
2023-02-08T04:59:23.095Z,4.57
2023-02-08T05:04:26.549Z,4.13
2023-02-08T05:09:31.477Z,4.60
2023-02-08T05:14:34.955Z,3.90
2023-02-08T05:19:38.332Z,4.43
2023-02-08T05:24:43.186Z,4.47
2023-02-08T05:29:46.650Z,3.93
2023-02-08T05:34:50.145Z,4.47
2023-02-08T05:39:54.954Z,4.70
2023-02-08T05:44:58.378Z,3.63
2023-02-08T05:50:01.758Z,5.77
2023-02-08T05:55:07.450Z,4.03
2023-02-08T06:00:12.209Z,3.53
2023-02-08T06:05:15.603Z,3.43
2023-02-08T06:10:20.583Z,3.87
2023-02-08T06:15:23.977Z,4.50
2023-02-08T06:20:27.573Z,5.73
2023-02-08T06:25:32.612Z,4.53
2023-02-08T06:30:35.950Z,5.83
2023-02-08T06:35:39.353Z,4.33
2023-02-08T06:40:44.147Z,4.90
2023-02-08T06:45:47.975Z,5.73
2023-02-08T06:50:55.334Z,5.97
2023-02-08T06:56:00.435Z,5.87
2023-02-08T07:01:03.801Z,5.13
2023-02-08T07:06:07.277Z,5.50
2023-02-08T07:11:13.680Z,4.90
2023-02-08T07:16:17.423Z,5.13
2023-02-08T07:21:21.796Z,7.23
2023-02-08T07:26:26.720Z,5.63
2023-02-08T07:31:30.121Z,5.27
2023-02-08T07:36:33.538Z,6.57
2023-02-08T07:41:38.325Z,6.33
2023-02-08T07:46:41.924Z,4.83
2023-02-08T07:51:45.311Z,4.57
2023-02-08T07:56:50.284Z,4.70
2023-02-08T08:01:53.764Z,6.40
2023-02-08T08:06:57.229Z,9.37
2023-02-08T08:12:02.388Z,5.23
2023-02-08T08:17:05.802Z,5.03
2023-02-08T08:22:09.364Z,5.67
2023-02-08T08:27:14.226Z,7.47
2023-02-08T08:32:17.777Z,7.40
2023-02-08T08:37:21.249Z,6.43
2023-02-08T08:42:26.707Z,5.23
2023-02-08T08:47:30.122Z,5.73
2023-02-08T08:52:33.617Z,6.33
2023-02-08T08:57:38.441Z,6.57
2023-02-08T09:02:41.853Z,5.70
2023-02-08T09:07:45.219Z,6.77
2023-02-08T09:12:50.065Z,5.87
2023-02-08T09:17:53.492Z,5.27
2023-02-08T09:22:57.357Z,7.33
2023-02-08T09:28:02.204Z,5.50
2023-02-08T09:33:05.702Z,4.50
2023-02-08T09:38:09.095Z,3.70
2023-02-08T09:43:19.688Z,3.80
2023-02-08T09:48:25.473Z,3.33
2023-02-08T09:53:34.475Z,4.53
2023-02-08T09:58:41.020Z,3.43
2023-02-08T10:03:46.119Z,4.00
2023-02-08T10:08:52.510Z,4.93
2023-02-08T10:14:09.723Z,3.73
2023-02-08T10:19:27.822Z,3.33
2023-02-08T10:24:57.183Z,3.33
2023-02-08T10:30:20.622Z,3.30
2023-02-08T10:35:29.277Z,3.23
2023-02-08T10:40:38.985Z,3.10
2023-02-08T10:45:53.096Z,3.80
2023-02-08T10:50:56.661Z,3.40
2023-02-08T10:56:00.120Z,3.30
2023-02-08T11:01:07.347Z,3.90
2023-02-08T11:06:27.510Z,3.90
2023-02-08T11:11:36.882Z,3.97
2023-02-08T11:16:43.432Z,3.90
2023-02-08T11:21:52.420Z,4.27
2023-02-08T11:26:56.901Z,3.90
2023-02-08T11:32:04.169Z,4.13
2023-02-08T11:37:19.072Z,3.87
2023-02-08T11:42:25.185Z,3.90
2023-02-08T11:47:33.120Z,4.30
2023-02-08T11:52:39.481Z,4.37
2023-02-08T11:57:55.101Z,3.40
2023-02-08T12:03:02.321Z,3.50
2023-02-08T12:08:15.480Z,3.43
2023-02-08T12:13:42.562Z,3.80
2023-02-08T12:19:02.572Z,2.80
2023-02-08T12:24:15.528Z,2.73
2023-02-08T12:29:47.256Z,3.57
2023-02-08T12:35:57.381Z,3.50
2023-02-08T12:40:57.900Z,2.93
2023-02-08T12:46:15.132Z,3.10
2023-02-08T12:51:26.456Z,3.90
2023-02-08T12:56:36.820Z,3.03
2023-02-08T13:01:44.485Z,2.77
2023-02-08T13:06:54.894Z,2.70
2023-02-08T13:12:02.233Z,2.63
2023-02-08T13:17:17.096Z,2.80
2023-02-08T13:22:23.407Z,2.70
2023-02-08T13:27:26.827Z,3.80
2023-02-08T13:32:35.964Z,3.03
2023-02-08T13:37:41.053Z,2.63
2023-02-08T13:42:50.873Z,2.63
2023-02-08T13:47:59.950Z,3.20
2023-02-08T13:53:05.563Z,2.73
2023-02-08T13:58:37.560Z,3.30
2023-02-08T14:03:41.068Z,2.13
2023-02-08T14:08:55.354Z,2.87
2023-02-08T14:14:03.898Z,3.27
2023-02-08T14:19:22.393Z,2.37
2023-02-08T14:24:34.216Z,2.20
2023-02-08T14:29:38.191Z,2.57
2023-02-08T14:34:42.581Z,3.43
2023-02-08T14:39:50.630Z,1.67
2023-02-08T14:45:02.963Z,1.70
2023-02-08T14:50:15.359Z,1.97
2023-02-08T14:55:27.613Z,2.37
2023-02-08T15:00:35.837Z,2.27
2023-02-08T15:05:45.343Z,1.73
2023-02-08T15:10:50.339Z,2.30
2023-02-08T15:15:55.878Z,2.90
2023-02-08T15:21:03.996Z,2.17
2023-02-08T15:26:23.288Z,2.70
2023-02-08T15:31:32.814Z,2.43
2023-02-08T15:36:38.775Z,2.90
2023-02-08T15:41:43.594Z,3.10
2023-02-08T15:46:47.609Z,3.70
2023-02-08T15:51:51.842Z,2.47
2023-02-08T15:56:59.778Z,2.47
2023-02-08T16:02:19.599Z,1.87
2023-02-08T16:07:29.877Z,2.43
2023-02-08T16:12:35.098Z,3.07
2023-02-08T16:17:43.639Z,2.73
2023-02-08T16:22:57.052Z,2.60
2023-02-08T16:28:02.719Z,2.33
2023-02-08T16:33:10.370Z,2.60
2023-02-08T16:38:23.006Z,2.20
2023-02-08T16:43:29.567Z,2.17
2023-02-08T16:48:36.365Z,2.30
2023-02-08T16:53:42.580Z,3.80
2023-02-08T16:58:48.521Z,2.77
2023-02-08T17:03:53.410Z,2.60
2023-02-08T17:08:59.818Z,3.47
2023-02-08T17:14:07.561Z,4.57
2023-02-08T17:19:18.064Z,2.63
2023-02-08T17:24:22.572Z,5.27
2023-02-08T17:29:28.583Z,4.60
2023-02-08T17:34:32.571Z,4.13
2023-02-08T17:39:37.116Z,6.07
2023-02-08T17:44:42.749Z,4.97
2023-02-08T17:49:49.900Z,5.60
2023-02-08T17:54:54.614Z,5.70
2023-02-08T18:00:00.549Z,4.97
2023-02-08T18:05:05.183Z,2.23
2023-02-08T18:10:10.059Z,4.67
2023-02-08T18:15:21.115Z,4.83
2023-02-08T18:20:27.041Z,6.20
2023-02-08T18:25:30.955Z,3.13
2023-02-08T18:30:37.520Z,3.90
2023-02-08T18:35:41.886Z,3.40
2023-02-08T18:40:46.840Z,2.30
2023-02-08T18:46:03.856Z,5.90
2023-02-08T18:51:12.757Z,7.30
2023-02-08T18:56:18.218Z,6.70
2023-02-08T19:01:26.543Z,5.70
2023-02-08T19:06:32.207Z,5.47
2023-02-08T19:11:42.153Z,3.77
2023-02-08T19:16:48.328Z,7.63
2023-02-08T19:21:52.997Z,4.23
2023-02-08T19:26:57.230Z,4.47
2023-02-08T19:32:06.729Z,6.13
2023-02-08T19:37:11.692Z,3.67
2023-02-08T19:42:16.859Z,5.90
2023-02-08T19:47:48.524Z,2.90
2023-02-08T19:52:53.752Z,3.30
2023-02-08T19:57:58.386Z,3.20
2023-02-08T20:03:19.654Z,3.33
2023-02-08T20:08:27.496Z,4.47
2023-02-08T20:13:32.295Z,2.67
2023-02-08T20:18:39.113Z,2.83
2023-02-08T20:23:43.857Z,3.47
2023-02-08T20:28:50.550Z,4.47
2023-02-08T20:33:58.752Z,3.57
2023-02-08T20:39:03.227Z,3.73
2023-02-08T20:44:08.900Z,3.30
2023-02-08T20:49:22.267Z,3.53
2023-02-08T20:54:26.949Z,6.50
2023-02-08T20:59:32.767Z,4.07
2023-02-08T21:04:38.830Z,6.73
2023-02-08T21:09:42.248Z,4.00
2023-02-08T21:14:45.666Z,5.70
2023-02-08T21:19:51.717Z,3.93
2023-02-08T21:24:55.369Z,3.77
2023-02-08T21:30:00.980Z,3.47
2023-02-08T21:35:06.625Z,3.40
2023-02-08T21:40:10.921Z,3.20
2023-02-08T21:45:14.847Z,3.17
2023-02-08T21:50:36.985Z,2.60
2023-02-08T21:55:40.344Z,2.13
2023-02-08T22:00:43.936Z,1.67
2023-02-08T22:05:49.502Z,2.70
2023-02-08T22:10:58.478Z,3.60
2023-02-08T22:16:02.634Z,4.87
2023-02-08T22:21:08.009Z,3.53
2023-02-08T22:26:11.784Z,3.97
2023-02-08T22:31:16.214Z,4.07
2023-02-08T22:36:21.528Z,4.20
2023-02-08T22:41:25.003Z,3.77
2023-02-08T22:46:28.491Z,4.93
2023-02-08T22:51:33.306Z,3.97
2023-02-08T22:56:36.692Z,4.30
2023-02-08T23:01:40.203Z,3.90
2023-02-08T23:06:45.106Z,3.43
2023-02-08T23:11:48.578Z,2.57
2023-02-08T23:16:52.049Z,3.13
2023-02-08T23:21:59.689Z,3.33
2023-02-08T23:27:03.080Z,4.47
2023-02-08T23:32:06.578Z,5.33
2023-02-08T23:37:11.384Z,6.87
2023-02-08T23:42:25.590Z,5.70
2023-02-08T23:47:30.800Z,7.07
2023-02-08T23:52:37.311Z,5.23
2023-02-08T23:57:40.938Z,6.40
